Ixworth, United Kingdom
Current Conditions -  °F | °C
As of 2:31 PM on Thursday 30 Oct 2014 (Local Time) from EGUL Reporting Station
Broken Clouds Broken Clouds  
Wind Chill: 64°   Ceiling: 3700
Heat Index: 64°   Visibility: 6mi
Dew Point: 64°   Wind: 8mph
Humidity: 100%   Direction: 210°SSW
Pressure: 30.05"   Gusts: NA
Location:  52.3°N, 0.83°E
Report Text: EGUL 301431Z 21007KT 9999 SCT030 BKN037 18/18 A3005 RMK AO2A
Loading
Personal Weather Stations






























Interactive Weather Map
Tropical Storm Tracking
New forecast layout! Learn more

10-Day Weather Forecast

Advertisements
Track Severe Weather on mobile